Time;durP1;ratioP1;P1;durP2;ratioP2;P2;SDS_P1;SDS_P2;PMS_P1;PMS_P2;Temp;Humidity;BMP_temperature;BMP_pressure;BME280_temperature;BME280_humidity;BME280_pressure;Samples;Min_cycle;Max_cycle;Signal;HPM_P1;HPM_P2
2022/11/22 00:01:50;;;;;;;1.88;1.77;;;17.30;53.70;;;;;;5094527;28;20538;-57
2022/11/22 00:04:17;;;;;;;2.35;1.83;;;17.30;53.70;;;;;;5095805;28;20282;-59
2022/11/22 00:06:44;;;;;;;3.70;1.90;;;17.30;53.70;;;;;;5093547;28;20612;-57
2022/11/22 00:09:11;;;;;;;2.08;1.83;;;17.30;53.80;;;;;;5091791;28;20241;-58
2022/11/22 00:11:40;;;;;;;2.65;1.83;;;17.30;54.40;;;;;;5095146;28;20189;-57
2022/11/22 00:14:08;;;;;;;2.20;2.00;;;17.30;53.90;;;;;;5094058;28;20213;-58
2022/11/22 00:16:35;;;;;;;2.10;1.90;;;17.30;53.90;;;;;;5093721;28;20194;-59
2022/11/22 00:19:02;;;;;;;3.15;1.83;;;17.20;53.80;;;;;;5093333;28;20202;-57
2022/11/22 00:21:29;;;;;;;2.78;1.90;;;17.20;53.90;;;;;;5091677;28;20205;-57
2022/11/22 00:23:56;;;;;;;1.80;1.70;;;17.20;53.90;;;;;;5091648;28;20187;-57
2022/11/22 00:26:24;;;;;;;1.98;1.77;;;17.30;54.00;;;;;;5092859;28;20194;-57
2022/11/22 00:28:52;;;;;;;2.70;2.10;;;17.20;54.00;;;;;;5092938;28;20190;-57
2022/11/22 00:31:19;;;;;;;1.70;1.60;;;17.20;53.90;;;;;;5092805;28;20214;-57
2022/11/22 00:33:48;;;;;;;3.63;2.03;;;17.20;54.00;;;;;;5092681;28;20336;-57
2022/11/22 00:36:16;;;;;;;2.10;1.90;;;17.20;54.00;;;;;;5092643;28;20285;-57
2022/11/22 00:38:43;;;;;;;2.10;1.90;;;17.20;54.10;;;;;;5094050;28;20263;-57
2022/11/22 00:41:10;;;;;;;2.30;1.90;;;17.20;53.70;;;;;;5096609;28;20210;-57
2022/11/22 00:43:37;;;;;;;1.95;1.75;;;17.20;54.00;;;;;;5095154;28;20683;-57
2022/11/22 00:46:05;;;;;;;2.28;1.90;;;17.20;54.10;;;;;;5095106;28;20298;-57
2022/11/22 00:48:32;;;;;;;2.55;1.80;;;17.20;54.10;;;;;;5096320;28;20214;-57
2022/11/22 00:51:00;;;;;;;3.00;1.98;;;17.20;54.00;;;;;;5094835;28;20313;-57
2022/11/22 00:53:27;;;;;;;2.58;1.92;;;17.20;54.10;;;;;;5096496;28;20205;-57
2022/11/22 00:55:54;;;;;;;2.42;1.65;;;17.10;53.90;;;;;;5094880;28;20444;-57
2022/11/22 00:58:21;;;;;;;2.13;1.70;;;17.20;54.10;;;;;;5094870;28;20190;-57
2022/11/22 01:00:49;;;;;;;2.45;2.13;;;17.10;54.00;;;;;;5096137;28;20288;-57
2022/11/22 01:03:18;;;;;;;1.95;1.80;;;17.10;54.00;;;;;;5096159;28;20186;-57
2022/11/22 01:05:46;;;;;;;2.10;1.90;;;17.10;54.10;;;;;;5094874;28;20197;-57
2022/11/22 01:08:13;;;;;;;2.00;1.80;;;17.10;54.00;;;;;;5096212;28;20261;-57
2022/11/22 01:10:40;;;;;;;2.42;1.50;;;17.10;54.10;;;;;;5094998;28;20673;-57
2022/11/22 01:13:08;;;;;;;2.22;2.03;;;17.10;54.10;;;;;;5094507;28;20218;-57
2022/11/22 01:15:35;;;;;;;1.60;1.50;;;17.10;54.10;;;;;;5094532;28;20194;-57
2022/11/22 01:18:02;;;;;;;2.42;2.03;;;17.10;54.10;;;;;;5095806;28;20214;-57
2022/11/22 01:20:31;;;;;;;2.75;1.90;;;17.10;54.10;;;;;;5095690;28;20275;-57
2022/11/22 01:22:58;;;;;;;3.88;2.13;;;17.10;54.10;;;;;;5095745;28;20307;-57
2022/11/22 01:25:25;;;;;;;2.33;2.13;;;17.00;54.10;;;;;;5094364;28;20201;-57
2022/11/22 01:27:52;;;;;;;2.22;1.90;;;17.00;54.00;;;;;;5095899;28;20220;-57
2022/11/22 01:30:19;;;;;;;3.08;2.30;;;17.10;54.20;;;;;;5095521;28;20280;-57
2022/11/22 01:32:46;;;;;;;2.22;1.92;;;17.00;54.20;;;;;;5094218;28;20198;-57
2022/11/22 01:35:13;;;;;;;2.60;1.90;;;17.00;54.30;;;;;;5095508;28;20343;-57
2022/11/22 01:37:42;;;;;;;2.63;2.10;;;17.00;54.20;;;;;;5094159;28;20247;-57
2022/11/22 01:40:10;;;;;;;2.00;1.80;;;17.00;54.20;;;;;;5094099;28;20266;-57
2022/11/22 01:42:45;;;;;;;2.20;1.90;;;17.00;54.30;;;;;;5094100;28;20285;-57
2022/11/22 01:45:38;;;;;;;2.47;2.00;;;17.00;54.20;;;;;;5095297;28;20663;-57
2022/11/22 01:48:06;;;;;;;2.80;1.90;;;17.00;54.30;;;;;;5081082;28;20619;-57
2022/11/22 01:50:35;;;;;;;2.67;2.08;;;17.00;54.30;;;;;;5095028;28;20704;-57
2022/11/22 01:53:09;;;;;;;1.88;1.70;;;17.00;54.40;;;;;;5094970;28;20239;-57
2022/11/22 01:55:36;;;;;;;1.90;1.70;;;17.00;54.40;;;;;;5093839;28;20293;-57
2022/11/22 01:58:03;;;;;;;2.30;1.75;;;17.00;54.40;;;;;;5093748;28;20198;-57
2022/11/22 02:00:30;;;;;;;3.03;2.30;;;17.00;54.40;;;;;;5093662;28;20253;-57
2022/11/22 02:02:58;;;;;;;1.98;1.77;;;16.90;54.30;;;;;;5094253;28;20214;-57
2022/11/22 02:05:27;;;;;;;1.95;1.85;;;16.90;54.40;;;;;;5093656;28;20244;-57
2022/11/22 02:07:58;;;;;;;2.22;2.03;;;17.00;54.50;;;;;;5094773;28;20214;-57
2022/11/22 02:10:27;;;;;;;1.83;1.67;;;17.00;54.40;;;;;;5093880;28;20217;-57
2022/11/22 02:12:55;;;;;;;1.73;1.60;;;16.90;54.40;;;;;;5095344;28;20247;-57
2022/11/22 02:15:22;;;;;;;1.73;1.52;;;16.90;54.50;;;;;;5093608;28;20202;-57
2022/11/22 02:17:49;;;;;;;2.13;1.92;;;16.90;54.50;;;;;;5093536;28;20225;-57
2022/11/22 02:20:18;;;;;;;2.25;1.95;;;16.90;54.50;;;;;;5094534;28;20805;-57
2022/11/22 02:22:46;;;;;;;1.63;1.50;;;16.90;54.60;;;;;;5093379;28;20631;-57
2022/11/22 02:25:15;;;;;;;1.63;1.50;;;16.90;54.50;;;;;;5094809;28;20214;-57
2022/11/22 02:27:44;;;;;;;2.20;1.70;;;16.90;54.60;;;;;;5093945;28;20629;-57
2022/11/22 02:30:11;;;;;;;1.52;1.42;;;16.90;54.70;;;;;;5093300;28;20267;-57
2022/11/22 02:32:38;;;;;;;1.67;1.55;;;16.90;55.20;;;;;;5094486;28;20221;-57
2022/11/22 02:35:16;;;;;;;1.63;1.52;;;16.90;54.60;;;;;;5093161;28;20220;-57
2022/11/22 02:37:43;;;;;;;2.22;1.80;;;16.90;54.50;;;;;;5093230;28;20196;-57
2022/11/22 02:40:13;;;;;;;1.88;1.77;;;16.90;54.60;;;;;;5094264;28;20256;-57
2022/11/22 02:42:41;;;;;;;1.83;1.60;;;16.80;54.50;;;;;;5093559;28;20183;-57
2022/11/22 02:45:10;;;;;;;1.75;1.63;;;16.80;54.60;;;;;;5094518;28;20600;-58
2022/11/22 02:47:37;;;;;;;1.67;1.58;;;16.90;54.80;;;;;;5094200;28;20194;-58
2022/11/22 02:50:05;;;;;;;1.92;1.73;;;16.80;54.60;;;;;;5092773;28;20217;-58
2022/11/22 02:52:32;;;;;;;1.90;1.55;;;16.80;54.70;;;;;;5093912;28;20289;-57
2022/11/22 02:54:59;;;;;;;1.85;1.65;;;16.80;54.50;;;;;;5093902;28;20229;-57
2022/11/22 02:57:26;;;;;;;2.10;1.90;;;16.80;54.50;;;;;;5093992;28;20667;-57
2022/11/22 02:59:53;;;;;;;2.08;1.48;;;16.80;54.70;;;;;;5093787;28;20206;-58
2022/11/22 03:02:22;;;;;;;2.30;1.80;;;16.80;54.70;;;;;;5093305;28;20263;-57
2022/11/22 03:04:49;;;;;;;1.65;1.48;;;16.80;54.60;;;;;;5092414;28;20209;-57
2022/11/22 03:07:17;;;;;;;1.60;1.50;;;16.80;54.70;;;;;;5092433;28;20656;-57
2022/11/22 03:09:44;;;;;;;1.70;1.60;;;16.80;54.60;;;;;;5093625;28;20627;-57
2022/11/22 03:12:11;;;;;;;1.63;1.52;;;16.80;54.70;;;;;;5093666;28;20660;-57
2022/11/22 03:14:38;;;;;;;2.17;1.98;;;16.80;54.70;;;;;;5092846;28;20267;-57
2022/11/22 03:17:06;;;;;;;1.60;1.50;;;16.80;54.50;;;;;;5092282;28;20202;-57
2022/11/22 03:19:34;;;;;;;1.45;1.35;;;16.80;54.70;;;;;;5093514;28;20702;-57
2022/11/22 03:22:01;;;;;;;1.73;1.42;;;16.80;54.60;;;;;;5093572;28;20210;-57
2022/11/22 03:24:28;;;;;;;1.77;1.52;;;16.70;54.50;;;;;;5092129;28;20193;-57
2022/11/22 03:32:36;;;;;;;2.65;1.50;;;16.70;54.70;;;;;;4954914;29;20277;-68
2022/11/22 03:35:06;;;;;;;1.50;1.40;;;16.70;54.50;;;;;;4954821;29;20226;-68
2022/11/22 03:37:33;;;;;;;2.13;1.63;;;16.70;54.70;;;;;;4954938;29;20203;-68
2022/11/22 03:40:00;;;;;;;1.83;1.70;;;16.70;54.60;;;;;;4967091;28;20233;-68
2022/11/22 03:42:27;;;;;;;1.60;1.50;;;16.70;54.70;;;;;;4954651;28;20198;-68
2022/11/22 03:44:54;;;;;;;1.40;1.30;;;16.70;54.70;;;;;;4954653;28;20199;-68
2022/11/22 03:47:22;;;;;;;1.60;1.30;;;16.70;54.80;;;;;;4955758;29;20201;-69
2022/11/22 03:49:49;;;;;;;1.45;1.35;;;16.60;54.60;;;;;;4970723;28;20222;-69
2022/11/22 03:52:17;;;;;;;1.60;1.50;;;16.60;54.70;;;;;;4956148;29;20246;-69
2022/11/22 03:54:44;;;;;;;2.05;1.35;;;16.60;54.70;;;;;;4970494;28;20223;-69
2022/11/22 03:57:11;;;;;;;1.70;1.60;;;16.60;54.80;;;;;;4954727;28;20221;-69
2022/11/22 03:59:38;;;;;;;1.65;1.55;;;16.60;54.70;;;;;;4955154;28;20230;-69
2022/11/22 04:02:05;;;;;;;1.50;1.40;;;16.60;54.70;;;;;;4956017;29;20194;-69
2022/11/22 04:04:33;;;;;;;1.52;1.42;;;16.60;54.70;;;;;;4954482;29;20217;-69
2022/11/22 04:06:59;;;;;;;1.50;1.40;;;16.60;54.70;;;;;;4970523;28;20202;-69
2022/11/22 04:09:28;;;;;;;1.50;1.30;;;16.60;54.70;;;;;;4954254;28;20218;-69
2022/11/22 04:11:55;;;;;;;1.58;1.48;;;16.60;54.70;;;;;;4954380;28;20195;-69
2022/11/22 04:17:07;;;;;;;1.85;1.60;;;16.60;54.70;;;;;;4959402;29;20298;-69
2022/11/22 04:19:35;;;;;;;1.63;1.50;;;16.60;54.70;;;;;;4957956;29;20719;-69
2022/11/22 04:22:01;;;;;;;1.70;1.60;;;16.60;54.70;;;;;;4957927;28;20262;-69
2022/11/22 04:27:14;;;;;;;3.03;1.40;;;16.60;54.70;;;;;;4957877;29;20277;-69
2022/11/22 04:29:42;;;;;;;1.17;1.15;;;16.50;54.70;;;;;;4958136;28;20227;-69
2022/11/22 04:34:53;;;;;;;1.30;1.20;;;16.50;54.70;;;;;;4957957;29;20265;-69
2022/11/22 04:37:21;;;;;;;1.20;1.10;;;16.50;54.70;;;;;;4958646;29;20617;-69
2022/11/22 04:39:49;;;;;;;1.40;1.30;;;16.60;54.80;;;;;;4959377;28;20221;-69
2022/11/22 04:45:01;;;;;;;1.52;1.42;;;16.60;54.70;;;;;;4959445;29;20171;-69
2022/11/22 04:52:57;;;;;;;2.35;1.30;;;16.60;54.60;;;;;;4957611;29;20207;-69
2022/11/22 04:55:26;;;;;;;1.13;1.13;;;16.60;55.00;;;;;;4957390;29;20597;-69
2022/11/22 04:57:53;;;;;;;1.40;1.30;;;16.60;54.30;;;;;;4957512;28;20203;-69
2022/11/22 05:00:20;;;;;;;1.45;1.35;;;16.60;54.30;;;;;;4973411;28;20210;-69
2022/11/22 05:02:47;;;;;;;1.40;1.20;;;16.60;54.20;;;;;;4974234;28;20250;-68
2022/11/22 05:05:15;;;;;;;1.92;1.20;;;16.60;54.10;;;;;;4957398;29;20254;-68
2022/11/22 05:07:42;;;;;;;1.38;1.27;;;16.60;54.10;;;;;;4958616;29;20199;-69
2022/11/22 05:10:10;;;;;;;1.40;1.30;;;16.50;53.90;;;;;;4957342;28;20226;-70
2022/11/22 05:12:40;;;;;;;1.45;1.30;;;16.60;54.10;;;;;;4973166;28;20638;-70
2022/11/22 05:15:09;;;;;;;1.30;1.20;;;16.60;54.30;;;;;;4973820;28;20219;-70
2022/11/22 05:17:37;;;;;;;1.30;1.20;;;16.60;54.30;;;;;;4973355;28;20680;-70
2022/11/22 05:20:04;;;;;;;1.48;1.33;;;16.60;54.10;;;;;;4958488;28;20211;-70
2022/11/22 05:25:16;;;;;;;1.35;1.25;;;16.60;53.90;;;;;;4957414;28;20190;-70
2022/11/22 05:27:44;;;;;;;1.30;1.20;;;16.60;53.90;;;;;;4956995;28;20297;-69
2022/11/22 05:30:12;;;;;;;1.30;1.20;;;16.60;53.80;;;;;;4958224;28;20700;-70
2022/11/22 05:32:39;;;;;;;1.50;1.40;;;16.70;53.90;;;;;;4941002;29;20211;-70
2022/11/22 05:35:06;;;;;;;1.35;1.25;;;16.70;53.70;;;;;;4972840;28;20219;-70
2022/11/22 05:37:35;;;;;;;1.40;1.30;;;16.70;53.70;;;;;;4956786;29;20230;-70
2022/11/22 05:40:02;;;;;;;3.08;1.50;;;16.70;54.30;;;;;;4972812;28;20251;-70
2022/11/22 05:42:29;;;;;;;1.25;1.15;;;16.70;53.70;;;;;;4956829;28;20210;-71
2022/11/22 05:44:58;;;;;;;1.67;1.20;;;16.70;53.80;;;;;;4957836;29;20187;-70
2022/11/22 05:47:25;;;;;;;1.27;1.20;;;16.70;53.60;;;;;;4956994;29;20199;-70
2022/11/22 05:49:52;;;;;;;1.70;1.33;;;16.70;53.70;;;;;;4956464;28;20313;-70
2022/11/22 05:52:20;;;;;;;1.50;1.40;;;16.70;53.70;;;;;;4956752;29;20203;-70
2022/11/22 05:54:47;;;;;;;1.60;1.50;;;16.70;53.60;;;;;;4957902;28;20217;-70
2022/11/22 05:57:14;;;;;;;1.42;1.33;;;16.80;53.80;;;;;;4957521;29;20205;-70
2022/11/22 05:59:42;;;;;;;1.63;1.20;;;16.80;53.60;;;;;;4956341;29;20721;-70
2022/11/22 06:02:10;;;;;;;1.40;1.30;;;16.80;53.70;;;;;;4956443;28;20293;-70
2022/11/22 06:04:38;;;;;;;1.70;1.45;;;16.80;53.70;;;;;;4957734;29;20191;-70
2022/11/22 06:07:04;;;;;;;1.80;1.30;;;16.80;53.70;;;;;;4972310;28;20195;-70
2022/11/22 06:09:32;;;;;;;1.65;1.33;;;16.80;53.80;;;;;;4956139;29;20223;-70
2022/11/22 06:11:59;;;;;;;1.52;1.27;;;16.80;53.70;;;;;;4972346;28;20207;-70
2022/11/22 06:14:26;;;;;;;1.40;1.30;;;16.80;53.70;;;;;;4956223;29;20226;-70
2022/11/22 06:16:54;;;;;;;1.42;1.23;;;16.80;53.50;;;;;;4957277;29;20195;-69
2022/11/22 06:19:22;;;;;;;1.40;1.30;;;16.80;53.60;;;;;;4955860;29;20218;-70
2022/11/22 06:21:49;;;;;;;1.60;1.45;;;16.80;53.70;;;;;;4956062;29;20207;-70
2022/11/22 06:24:17;;;;;;;1.42;1.33;;;16.80;53.70;;;;;;4957237;28;20191;-70
2022/11/22 06:26:44;;;;;;;2.10;1.45;;;16.80;53.60;;;;;;4971971;28;20203;-70
2022/11/22 06:29:11;;;;;;;1.60;1.50;;;16.90;53.60;;;;;;4957194;28;20214;-68
2022/11/22 06:31:38;;;;;;;2.25;1.65;;;16.80;53.70;;;;;;4972029;28;20203;-68
2022/11/22 06:34:05;;;;;;;1.60;1.50;;;16.90;53.60;;;;;;4971892;28;20195;-68
2022/11/22 06:36:34;;;;;;;1.75;1.60;;;16.90;53.60;;;;;;4955099;28;20671;-69
2022/11/22 06:39:01;;;;;;;1.98;1.40;;;16.90;53.60;;;;;;4955888;28;20285;-69
2022/11/22 06:41:31;;;;;;;1.50;1.27;;;16.90;53.80;;;;;;4973021;28;20199;-69
2022/11/22 06:43:58;;;;;;;1.50;1.40;;;16.90;53.60;;;;;;4956092;28;20261;-69
2022/11/22 06:46:26;;;;;;;1.42;1.10;;;16.90;53.80;;;;;;4983404;28;20195;-69
2022/11/22 06:48:53;;;;;;;1.40;1.30;;;16.90;53.60;;;;;;4965934;29;20258;-69
2022/11/22 06:51:21;;;;;;;1.70;1.27;;;16.90;53.80;;;;;;4972406;28;20217;-69
2022/11/22 06:53:50;;;;;;;1.42;1.20;;;16.90;54.40;;;;;;4955577;29;20199;-69
2022/11/22 06:56:18;;;;;;;1.40;1.30;;;16.90;53.60;;;;;;4971477;28;20218;-70
2022/11/22 06:58:45;;;;;;;2.13;1.10;;;16.90;53.50;;;;;;4955349;28;20268;-70
2022/11/22 07:01:15;;;;;;;1.10;1.10;;;16.90;53.60;;;;;;4956525;29;20198;-70
2022/11/22 07:03:42;;;;;;;1.50;1.30;;;16.90;53.70;;;;;;4971250;28;20207;-70
2022/11/22 07:06:10;;;;;;;1.77;1.13;;;17.00;53.40;;;;;;4955274;28;20666;-70
2022/11/22 07:08:37;;;;;;;1.45;1.25;;;16.90;53.40;;;;;;4956670;28;20214;-70
2022/11/22 07:11:08;;;;;;;1.50;1.40;;;17.00;53.50;;;;;;4955182;29;20199;-70
2022/11/22 07:13:35;;;;;;;2.10;1.25;;;17.00;53.50;;;;;;4955467;28;20520;-70
2022/11/22 07:16:03;;;;;;;1.25;1.13;;;17.00;53.10;;;;;;4955007;29;20569;-70
2022/11/22 07:18:30;;;;;;;1.30;1.20;;;17.00;53.20;;;;;;4971793;28;20313;-70
2022/11/22 07:21:00;;;;;;;1.40;1.30;;;17.00;53.20;;;;;;4956266;29;20198;-70
2022/11/22 07:23:28;;;;;;;1.30;1.20;;;17.10;53.10;;;;;;4956143;28;20206;-70
2022/11/22 07:25:55;;;;;;;1.30;1.10;;;17.10;53.10;;;;;;4954990;28;20199;-70
2022/11/22 07:28:23;;;;;;;1.70;1.30;;;17.10;53.30;;;;;;4970807;28;20249;-70
2022/11/22 07:30:50;;;;;;;1.95;1.58;;;17.10;53.00;;;;;;4954800;28;20206;-69
2022/11/22 07:33:18;;;;;;;1.88;1.33;;;17.20;53.10;;;;;;4954648;28;20207;-69
2022/11/22 07:35:45;;;;;;;2.33;1.30;;;17.20;53.20;;;;;;4954957;28;20214;-69
2022/11/22 07:38:12;;;;;;;1.40;1.30;;;17.20;52.70;;;;;;4971264;28;20207;-69
2022/11/22 07:40:39;;;;;;;1.58;1.48;;;17.30;53.10;;;;;;4971090;28;20199;-69
2022/11/22 07:43:06;;;;;;;1.73;1.42;;;17.30;52.80;;;;;;4955106;28;20202;-69
2022/11/22 07:45:34;;;;;;;1.90;1.80;;;17.30;52.80;;;;;;4954872;29;20203;-68
2022/11/22 07:48:01;;;;;;;2.00;1.58;;;17.30;53.00;;;;;;4955385;29;20226;-69
2022/11/22 07:50:28;;;;;;;1.85;1.60;;;17.30;52.80;;;;;;4954673;28;20358;-69
2022/11/22 07:52:56;;;;;;;1.52;1.42;;;17.40;53.00;;;;;;4954812;28;20206;-69
2022/11/22 07:55:24;;;;;;;1.83;1.73;;;17.40;52.90;;;;;;4954694;29;20226;-69
2022/11/22 07:57:51;;;;;;;1.50;1.20;;;17.40;52.70;;;;;;4954768;28;20214;-69
2022/11/22 08:00:19;;;;;;;2.47;1.45;;;17.40;52.80;;;;;;4971014;28;20230;-69
2022/11/22 08:02:48;;;;;;;1.50;1.40;;;17.40;52.90;;;;;;4955391;28;20212;-70
2022/11/22 08:05:15;;;;;;;1.30;1.20;;;17.40;52.70;;;;;;4954853;29;20202;-70
2022/11/22 08:07:46;;;;;;;1.50;1.40;;;17.40;52.60;;;;;;4971611;28;20207;-70
2022/11/22 08:10:13;;;;;;;1.48;1.38;;;17.50;52.80;;;;;;4954937;29;20590;-69
2022/11/22 08:12:40;;;;;;;1.40;1.27;;;17.50;52.60;;;;;;4954915;29;20397;-69
2022/11/22 08:15:08;;;;;;;1.40;1.33;;;17.50;52.80;;;;;;4954546;28;20728;-69
2022/11/22 08:17:37;;;;;;;1.52;1.20;;;17.50;52.70;;;;;;4954591;28;20202;-69
2022/11/22 08:20:07;;;;;;;1.40;1.30;;;17.50;52.60;;;;;;4954861;28;20223;-69
2022/11/22 08:22:35;;;;;;;2.53;1.40;;;17.50;52.60;;;;;;4954680;29;20191;-69
2022/11/22 08:25:02;;;;;;;1.80;1.40;;;17.50;52.90;;;;;;4955621;29;20221;-69
2022/11/22 08:27:29;;;;;;;1.50;1.40;;;17.50;52.80;;;;;;4970702;28;20560;-69
2022/11/22 08:29:56;;;;;;;1.52;1.35;;;17.50;52.60;;;;;;4954668;28;20574;-69
2022/11/22 08:32:24;;;;;;;2.22;1.50;;;17.50;52.60;;;;;;4955718;29;20207;-69
2022/11/22 08:34:51;;;;;;;1.60;1.50;;;17.50;52.90;;;;;;4954160;28;20218;-69
2022/11/22 08:37:19;;;;;;;1.50;1.40;;;17.50;52.60;;;;;;4955377;29;20194;-69
2022/11/22 08:39:47;;;;;;;1.50;1.40;;;17.60;52.80;;;;;;4954145;29;20218;-69
2022/11/22 08:42:14;;;;;;;2.13;1.40;;;17.60;53.00;;;;;;4954569;29;20317;-69
2022/11/22 08:44:41;;;;;;;1.73;1.40;;;17.60;52.70;;;;;;4954182;28;20196;-69
2022/11/22 08:47:08;;;;;;;2.35;1.35;;;17.60;52.60;;;;;;4954156;28;20191;-69
2022/11/22 08:49:35;;;;;;;1.83;1.50;;;17.70;52.80;;;;;;4955505;28;20211;-69
2022/11/22 08:52:02;;;;;;;1.65;1.55;;;17.70;52.70;;;;;;4955047;29;20209;-69
2022/11/22 08:54:30;;;;;;;2.45;1.50;;;17.70;52.90;;;;;;4970095;28;20567;-69
2022/11/22 08:56:57;;;;;;;2.13;1.40;;;17.70;52.70;;;;;;4954131;28;20195;-69
2022/11/22 08:59:24;;;;;;;2.05;1.55;;;17.80;52.80;;;;;;4954994;28;20654;-69
2022/11/22 09:01:52;;;;;;;2.08;1.58;;;17.80;52.80;;;;;;4957790;29;20199;-69
2022/11/22 09:04:18;;;;;;;1.55;1.45;;;17.80;52.80;;;;;;4941813;29;20249;-69
2022/11/22 09:06:45;;;;;;;1.52;1.42;;;17.80;52.60;;;;;;4973797;28;20203;-69
2022/11/22 09:09:12;;;;;;;1.70;1.40;;;17.80;52.80;;;;;;4973492;28;20225;-69
2022/11/22 09:11:41;;;;;;;2.05;1.70;;;17.80;52.70;;;;;;4957432;28;20195;-69
2022/11/22 09:14:08;;;;;;;2.65;1.60;;;17.90;52.70;;;;;;4957544;28;20199;-69
2022/11/22 09:16:36;;;;;;;1.77;1.67;;;17.90;52.90;;;;;;4957945;28;20289;-69
2022/11/22 09:19:21;;;;;;;1.63;1.50;;;17.90;52.70;;;;;;4958348;28;20358;-69
2022/11/22 09:21:48;;;;;;;1.73;1.63;;;17.90;52.60;;;;;;4959794;29;20733;-69
2022/11/22 09:24:15;;;;;;;3.35;1.80;;;17.90;53.00;;;;;;4957431;28;20203;-69
2022/11/22 09:26:44;;;;;;;1.80;1.58;;;18.00;52.60;;;;;;4957122;28;20657;-69
2022/11/22 09:29:11;;;;;;;2.10;1.55;;;18.00;52.50;;;;;;4957108;28;20226;-69
2022/11/22 09:31:38;;;;;;;3.25;1.67;;;18.00;52.60;;;;;;4958512;29;20645;-69
2022/11/22 09:34:05;;;;;;;2.35;1.65;;;18.00;52.30;;;;;;4956954;29;20207;-70
2022/11/22 09:36:33;;;;;;;1.77;1.25;;;18.00;52.30;;;;;;4957977;29;20211;-70
2022/11/22 09:38:59;;;;;;;1.48;1.30;;;18.10;52.40;;;;;;4958074;28;20217;-70
2022/11/22 09:41:55;;;;;;;3.00;1.50;;;18.00;52.30;;;;;;4956897;29;20203;-70
2022/11/22 09:44:28;;;;;;;1.38;1.27;;;18.10;52.40;;;;;;4966109;28;20229;-70
2022/11/22 09:46:58;;;;;;;2.75;1.50;;;18.10;52.30;;;;;;4956553;29;20191;-70
2022/11/22 09:49:27;;;;;;;2.90;1.55;;;18.10;52.20;;;;;;4956586;29;20222;-70
2022/11/22 09:51:58;;;;;;;2.70;1.50;;;18.20;52.30;;;;;;4972597;28;20206;-70
2022/11/22 09:54:27;;;;;;;1.20;1.10;;;18.20;52.20;;;;;;4957899;29;20701;-69
2022/11/22 09:56:55;;;;;;;2.08;1.35;;;18.20;52.20;;;;;;4956181;29;20703;-69
2022/11/22 09:59:26;;;;;;;1.80;1.38;;;18.20;52.20;;;;;;4956109;29;20637;-69
2022/11/22 10:01:55;;;;;;;2.00;1.42;;;18.30;52.10;;;;;;4972413;28;20293;-69
2022/11/22 10:04:23;;;;;;;1.73;1.20;;;18.30;52.00;;;;;;4957559;29;20186;-69
2022/11/22 10:06:52;;;;;;;2.28;1.25;;;18.30;51.80;;;;;;4956330;28;20298;-69
2022/11/22 10:09:26;;;;;;;2.15;1.40;;;18.40;51.80;;;;;;4956208;29;20254;-70
2022/11/22 10:11:55;;;;;;;3.80;1.58;;;18.40;51.70;;;;;;4972338;28;20641;-70
2022/11/22 10:14:35;;;;;;;1.75;1.30;;;18.40;51.70;;;;;;4956212;28;20285;-70
2022/11/22 10:17:08;;;;;;;2.85;1.60;;;18.40;51.80;;;;;;4956131;29;20218;-70
2022/11/22 10:19:39;;;;;;;2.53;1.67;;;18.40;51.80;;;;;;4955995;29;20228;-70
2022/11/22 10:22:09;;;;;;;2.63;1.60;;;18.40;51.70;;;;;;4955960;28;20584;-70
2022/11/22 10:24:37;;;;;;;1.63;1.23;;;18.40;51.60;;;;;;4956065;29;20214;-70
2022/11/22 10:27:04;;;;;;;2.08;1.42;;;18.40;51.60;;;;;;4955764;29;20245;-70
2022/11/22 10:29:36;;;;;;;2.55;1.30;;;18.40;51.90;;;;;;4955759;28;20230;-70
2022/11/22 10:32:07;;;;;;;2.67;1.23;;;18.40;51.70;;;;;;4955566;29;20218;-70
2022/11/22 10:34:42;;;;;;;1.85;1.20;;;18.40;51.80;;;;;;4955798;29;20186;-70
2022/11/22 10:37:13;;;;;;;2.15;1.50;;;18.40;51.70;;;;;;4955854;29;20218;-70
2022/11/22 10:39:55;;;;;;;1.58;1.40;;;18.50;51.90;;;;;;4956045;29;20223;-70
2022/11/22 10:42:29;;;;;;;2.05;1.33;;;18.40;51.80;;;;;;4955770;29;20198;-70
2022/11/22 10:45:00;;;;;;;2.08;1.20;;;18.50;51.80;;;;;;4955740;29;20282;-70
2022/11/22 10:47:43;;;;;;;1.88;1.27;;;18.50;51.60;;;;;;4972449;28;20202;-70
2022/11/22 10:50:13;;;;;;;1.60;1.23;;;18.50;51.70;;;;;;4957518;28;20369;-70
2022/11/22 10:52:45;;;;;;;1.70;1.30;;;18.50;51.40;;;;;;4956848;28;20565;-70
2022/11/22 10:55:21;;;;;;;3.60;1.30;;;18.50;51.60;;;;;;4955551;29;20205;-70
2022/11/22 10:57:51;;;;;;;1.63;1.30;;;18.50;51.40;;;;;;4956263;29;20594;-69
2022/11/22 11:00:20;;;;;;;2.15;1.17;;;18.50;51.40;;;;;;4956732;29;20219;-69
2022/11/22 11:03:17;;;;;;;2.17;1.10;;;18.50;52.00;;;;;;4955364;29;20258;-69
2022/11/22 11:05:46;;;;;;;1.42;1.20;;;18.50;51.50;;;;;;4969646;28;20195;-69
2022/11/22 11:08:14;;;;;;;2.35;1.30;;;18.60;51.70;;;;;;4971311;28;20199;-69
2022/11/22 11:10:42;;;;;;;1.88;1.30;;;18.50;51.50;;;;;;4955423;29;20227;-69
2022/11/22 11:13:15;;;;;;;2.03;1.20;;;18.50;51.60;;;;;;4955280;28;20202;-69
2022/11/22 11:15:45;;;;;;;1.50;1.23;;;18.60;51.60;;;;;;4956929;29;20203;-70
2022/11/22 11:18:15;;;;;;;2.83;1.30;;;18.60;51.50;;;;;;4955370;28;20683;-70
2022/11/22 11:20:46;;;;;;;1.45;1.25;;;18.60;51.20;;;;;;4971211;28;20621;-70
2022/11/22 11:23:13;;;;;;;1.40;1.10;;;18.60;51.50;;;;;;4954970;28;20203;-70
2022/11/22 11:25:42;;;;;;;2.08;1.38;;;18.60;51.30;;;;;;4956366;29;20254;-70
2022/11/22 11:28:11;;;;;;;2.60;1.67;;;18.60;51.10;;;;;;4955252;28;20574;-70
2022/11/22 11:30:41;;;;;;;2.67;1.33;;;18.60;51.20;;;;;;4970985;28;20302;-70
2022/11/22 11:33:24;;;;;;;1.55;1.27;;;18.60;51.40;;;;;;4954867;28;20203;-70
2022/11/22 11:35:53;;;;;;;1.73;1.10;;;18.60;51.10;;;;;;4955377;29;20301;-70
2022/11/22 11:38:28;;;;;;;2.05;1.30;;;18.70;51.40;;;;;;4955079;28;20250;-70
2022/11/22 11:40:56;;;;;;;1.85;1.40;;;18.70;51.10;;;;;;4955064;29;20278;-70
2022/11/22 11:43:24;;;;;;;1.45;1.23;;;18.70;50.90;;;;;;4954804;29;20206;-70
2022/11/22 11:45:50;;;;;;;1.83;1.13;;;18.70;51.10;;;;;;4970760;28;20198;-70
2022/11/22 11:48:39;;;;;;;2.40;1.30;;;18.70;51.00;;;;;;4954728;28;20202;-70
2022/11/22 11:51:10;;;;;;;2.00;1.30;;;18.80;51.30;;;;;;4954727;29;20544;-69
2022/11/22 11:53:38;;;;;;;2.55;1.17;;;18.80;51.00;;;;;;4954684;29;20202;-69
2022/11/22 11:56:21;;;;;;;2.22;1.20;;;18.80;50.70;;;;;;4971597;28;20226;-69
2022/11/22 11:58:52;;;;;;;1.30;1.10;;;18.80;51.00;;;;;;4956082;28;20309;-70
2022/11/22 12:01:20;;;;;;;2.15;1.20;;;18.80;50.70;;;;;;4965935;28;20195;-70
2022/11/22 12:03:53;;;;;;;1.30;1.20;;;18.80;51.10;;;;;;4964733;28;20199;-70
2022/11/22 12:06:21;;;;;;;1.95;1.10;;;18.80;51.10;;;;;;4971052;28;20198;-70
2022/11/22 12:08:48;;;;;;;1.30;1.20;;;18.90;50.80;;;;;;4956013;28;20235;-70
2022/11/22 12:11:17;;;;;;;1.50;1.27;;;18.90;51.00;;;;;;4970616;28;20203;-70
2022/11/22 12:13:45;;;;;;;1.98;1.30;;;18.90;50.90;;;;;;4954677;29;20203;-70
2022/11/22 12:16:16;;;;;;;2.50;1.27;;;18.90;51.00;;;;;;4970460;28;20620;-69
2022/11/22 12:18:46;;;;;;;1.27;1.00;;;18.90;50.70;;;;;;4970557;28;20333;-69
2022/11/22 12:21:22;;;;;;;1.02;1.00;;;19.00;50.90;;;;;;4954447;29;20199;-69
2022/11/22 12:23:51;;;;;;;1.83;1.20;;;19.00;50.70;;;;;;4970656;28;20206;-70
2022/11/22 12:26:19;;;;;;;1.85;1.10;;;19.00;51.20;;;;;;4955787;29;20194;-70
2022/11/22 12:28:46;;;;;;;1.75;1.30;;;19.00;50.80;;;;;;4954209;28;20577;-70
2022/11/22 12:31:16;;;;;;;2.15;1.17;;;19.00;51.10;;;;;;4954526;28;20552;-70
2022/11/22 12:33:44;;;;;;;1.10;1.00;;;19.00;50.60;;;;;;4955239;28;20191;-70
2022/11/22 12:36:15;;;;;;;1.90;1.15;;;19.10;50.70;;;;;;4958844;28;20219;-70
2022/11/22 12:38:44;;;;;;;1.83;0.95;;;19.10;50.90;;;;;;4974103;28;20270;-70
2022/11/22 12:41:15;;;;;;;1.45;1.00;;;19.10;50.80;;;;;;4973874;28;20213;-70
2022/11/22 12:43:45;;;;;;;1.42;1.20;;;19.10;50.80;;;;;;4958079;28;20651;-70
2022/11/22 12:46:15;;;;;;;1.95;1.30;;;19.10;50.60;;;;;;4973826;28;20653;-69
2022/11/22 12:48:44;;;;;;;1.75;1.02;;;19.10;50.80;;;;;;4957770;29;20624;-69
2022/11/22 12:51:14;;;;;;;1.13;1.00;;;19.10;51.00;;;;;;4973852;28;20205;-69
2022/11/22 12:53:43;;;;;;;1.75;1.30;;;19.10;50.90;;;;;;4957691;29;20234;-69
2022/11/22 12:56:16;;;;;;;2.17;1.15;;;19.10;50.70;;;;;;4973951;28;20215;-69
2022/11/22 12:58:47;;;;;;;1.60;1.15;;;19.10;50.50;;;;;;4957703;29;20227;-69
2022/11/22 13:01:17;;;;;;;2.97;1.23;;;19.10;50.70;;;;;;4957550;29;20302;-69
2022/11/22 13:03:47;;;;;;;2.03;1.20;;;19.10;50.50;;;;;;4957538;28;20202;-69
2022/11/22 13:06:14;;;;;;;0.95;0.93;;;19.10;50.60;;;;;;4958090;29;20205;-69
2022/11/22 13:08:46;;;;;;;1.70;1.20;;;19.10;51.00;;;;;;4957560;28;20227;-69
2022/11/22 13:11:15;;;;;;;1.80;1.33;;;19.10;51.10;;;;;;4958857;29;20187;-69
2022/11/22 13:13:43;;;;;;;2.30;1.10;;;19.10;51.00;;;;;;4957597;28;20211;-69
2022/11/22 13:16:11;;;;;;;1.20;1.10;;;19.10;51.00;;;;;;4957398;28;20222;-69
2022/11/22 13:18:41;;;;;;;1.20;1.10;;;19.10;50.90;;;;;;4957635;28;20223;-69
2022/11/22 13:21:13;;;;;;;1.83;1.00;;;19.10;51.50;;;;;;4957152;29;20206;-69